Clearfield, Pennsylvania
Current Conditions -  °F | °C
As of 5:54 AM on Sunday 23 Nov 2014 (Local Time) from KFIG Reporting Station
Haze Haze  
Wind Chill: 30°   Ceiling: 4200
Heat Index: 35°   Visibility: 6mi
Dew Point: 33°   Wind: 6mph
Humidity: 92%   Direction: 330°NNW
Pressure: 30.11"   Gusts: NA
Location:  41.02°N, 78.44°W
Report Text: KFIG 231054Z AUTO 33005KT 6SM BR OVC042 02/01 A3011 RMK AO2 RAB26E35 SLP209 P0000 T00170006
Loading
Personal Weather Stations






























Interactive Weather Map New forecast layout! Learn more

10-Day Weather Forecast

Advertisements
Track Severe Weather on mobile